Time;durP1;ratioP1;P1;durP2;ratioP2;P2;SDS_P1;SDS_P2;PMS_P1;PMS_P2;Temp;Humidity;BMP_temperature;BMP_pressure;BME280_temperature;BME280_humidity;BME280_pressure;Samples;Min_cycle;Max_cycle;Signal;HPM_P1;HPM_P2
2022/03/25 00:00:25;;;;;;;40.35;16.23;;;3.80;99.90;;;;;;5010638;28;20150;-70
2022/03/25 00:02:51;;;;;;;40.72;16.25;;;3.60;99.90;;;;;;5011141;28;20037;-71
2022/03/25 00:05:17;;;;;;;41.50;15.07;;;3.50;99.90;;;;;;5011918;28;20057;-71
2022/03/25 00:07:43;;;;;;;42.70;15.93;;;3.50;99.90;;;;;;5008829;28;20087;-69
2022/03/25 00:10:09;;;;;;;41.25;14.85;;;3.40;99.90;;;;;;5008233;28;20049;-70
2022/03/25 00:12:36;;;;;;;46.45;17.38;;;3.40;99.90;;;;;;5008930;28;20116;-70
2022/03/25 00:15:01;;;;;;;47.47;19.23;;;3.30;99.90;;;;;;5008083;28;20642;-70
2022/03/25 00:17:27;;;;;;;52.33;20.90;;;3.30;99.90;;;;;;5007745;28;20125;-71
2022/03/25 00:19:53;;;;;;;43.65;16.35;;;3.20;99.90;;;;;;5007820;28;20038;-71
2022/03/25 00:22:19;;;;;;;44.33;18.35;;;3.10;99.90;;;;;;5017363;28;20033;-71
2022/03/25 00:24:45;;;;;;;44.72;16.92;;;3.10;99.90;;;;;;5020640;28;20053;-69
2022/03/25 00:27:11;;;;;;;46.28;17.08;;;3.10;99.90;;;;;;5013612;28;20049;-71
2022/03/25 00:29:37;;;;;;;44.03;16.60;;;3.00;99.90;;;;;;5026573;28;20049;-70
2022/03/25 00:32:03;;;;;;;43.97;17.15;;;3.00;99.90;;;;;;5008617;28;20044;-71
2022/03/25 00:34:29;;;;;;;46.58;17.73;;;3.00;99.90;;;;;;5008257;28;20426;-71
2022/03/25 00:36:55;;;;;;;43.15;18.25;;;3.00;99.90;;;;;;5008527;28;20049;-71
2022/03/25 00:39:20;;;;;;;43.92;16.40;;;3.00;99.90;;;;;;5015797;28;20460;-71
2022/03/25 00:41:47;;;;;;;42.05;17.40;;;3.00;99.90;;;;;;5015477;28;20038;-69
2022/03/25 00:44:13;;;;;;;48.38;18.25;;;3.10;99.90;;;;;;5012110;28;20034;-71
2022/03/25 00:46:40;;;;;;;41.92;15.65;;;3.10;99.90;;;;;;5012118;28;20495;-71
2022/03/25 00:49:06;;;;;;;41.78;15.50;;;3.10;99.90;;;;;;5020225;28;20057;-71
2022/03/25 00:51:32;;;;;;;37.28;15.27;;;3.10;99.90;;;;;;5014934;28;20057;-71
2022/03/25 00:53:58;;;;;;;41.72;15.75;;;2.90;99.90;;;;;;5011810;28;20141;-71
2022/03/25 00:56:24;;;;;;;38.47;15.38;;;2.80;99.90;;;;;;5010807;28;20025;-71
2022/03/25 00:58:50;;;;;;;39.60;15.23;;;2.60;99.90;;;;;;5011288;28;20075;-71
2022/03/25 01:01:16;;;;;;;40.88;15.98;;;2.60;99.90;;;;;;5011396;28;20045;-71
2022/03/25 01:03:43;;;;;;;42.65;16.17;;;2.50;99.90;;;;;;5011587;28;20058;-71
2022/03/25 01:06:09;;;;;;;47.92;17.25;;;2.40;99.90;;;;;;5011113;28;20116;-72
2022/03/25 01:08:35;;;;;;;41.15;17.08;;;2.50;99.90;;;;;;5012855;28;20034;-71
2022/03/25 01:11:04;;;;;;;42.75;16.42;;;2.60;99.90;;;;;;5012455;28;20092;-71
2022/03/25 01:13:33;;;;;;;46.55;16.50;;;2.60;99.90;;;;;;5010984;28;20366;-71
2022/03/25 01:16:01;;;;;;;40.40;16.30;;;2.50;99.90;;;;;;5010725;28;20109;-70
2022/03/25 01:18:26;;;;;;;41.63;16.90;;;2.60;99.90;;;;;;5027620;28;20056;-71
2022/03/25 01:20:52;;;;;;;46.78;16.23;;;2.50;99.90;;;;;;5021033;28;20562;-70
2022/03/25 01:23:18;;;;;;;40.95;16.50;;;2.30;99.90;;;;;;5018312;28;20100;-71
2022/03/25 01:25:43;;;;;;;48.90;17.98;;;2.10;99.90;;;;;;5015385;28;20073;-71
2022/03/25 01:28:09;;;;;;;45.17;17.30;;;1.90;99.90;;;;;;5011250;28;20784;-70
2022/03/25 01:30:35;;;;;;;48.05;17.67;;;1.90;99.90;;;;;;5018098;28;20029;-71
2022/03/25 01:33:01;;;;;;;52.10;18.65;;;1.90;99.90;;;;;;5018178;28;20072;-71
2022/03/25 01:35:26;;;;;;;46.67;18.67;;;2.00;99.90;;;;;;5019177;28;20061;-71
2022/03/25 01:37:52;;;;;;;50.83;18.25;;;2.00;99.90;;;;;;5010912;28;20392;-71
2022/03/25 01:40:18;;;;;;;45.08;17.70;;;2.00;99.90;;;;;;5011295;28;20037;-71
2022/03/25 01:42:44;;;;;;;49.65;18.27;;;2.00;99.90;;;;;;5011115;28;20099;-71
2022/03/25 01:45:11;;;;;;;48.03;17.42;;;2.10;99.90;;;;;;5014279;28;20428;-71
2022/03/25 01:47:38;;;;;;;49.33;17.85;;;2.10;99.90;;;;;;5014146;28;20068;-71
2022/03/25 01:50:12;;;;;;;50.15;18.63;;;2.10;99.90;;;;;;5007622;28;20030;-70
2022/03/25 01:52:39;;;;;;;48.03;17.48;;;2.10;99.90;;;;;;5026339;28;20484;-71
2022/03/25 01:55:18;;;;;;;49.72;18.48;;;2.20;99.90;;;;;;5006891;28;20403;-71
2022/03/25 01:57:44;;;;;;;45.45;17.58;;;2.20;99.90;;;;;;5018343;28;20117;-71
2022/03/25 02:00:12;;;;;;;44.95;17.52;;;2.10;99.90;;;;;;5008237;28;20018;-70
2022/03/25 02:02:39;;;;;;;43.75;17.00;;;2.10;99.90;;;;;;5008943;28;20026;-71
2022/03/25 02:05:05;;;;;;;42.83;16.73;;;2.10;99.90;;;;;;5008877;28;20050;-71
2022/03/25 02:07:31;;;;;;;42.92;17.13;;;2.10;99.90;;;;;;5011688;28;20113;-72
2022/03/25 02:09:59;;;;;;;49.67;18.02;;;2.10;99.90;;;;;;5010230;28;20042;-72
2022/03/25 02:12:25;;;;;;;50.08;18.23;;;2.00;99.90;;;;;;5010223;28;20062;-71
2022/03/25 02:14:51;;;;;;;46.53;16.77;;;1.80;99.90;;;;;;5010279;28;20042;-69
2022/03/25 02:17:17;;;;;;;45.47;16.73;;;1.70;99.90;;;;;;5013437;28;20084;-72
2022/03/25 02:19:42;;;;;;;42.20;16.73;;;1.70;99.90;;;;;;5010482;28;20376;-71
2022/03/25 02:22:08;;;;;;;47.95;18.45;;;1.80;99.90;;;;;;5009432;28;20033;-69
2022/03/25 02:24:34;;;;;;;43.55;16.42;;;1.90;99.90;;;;;;5010322;28;20041;-71
2022/03/25 02:27:00;;;;;;;44.70;17.00;;;1.80;99.90;;;;;;5016508;28;20032;-71
2022/03/25 02:29:26;;;;;;;44.53;17.02;;;1.70;99.90;;;;;;5010177;28;20109;-72
2022/03/25 02:31:52;;;;;;;48.42;16.55;;;1.70;99.90;;;;;;5010097;28;20113;-69
2022/03/25 02:34:17;;;;;;;50.55;16.35;;;1.70;99.90;;;;;;5010145;28;20034;-71
2022/03/25 02:36:46;;;;;;;41.97;17.05;;;1.70;99.90;;;;;;5012052;28;20088;-72
2022/03/25 02:39:13;;;;;;;45.47;17.17;;;1.70;99.90;;;;;;5008480;28;20164;-71
2022/03/25 02:41:39;;;;;;;44.90;17.13;;;1.70;99.90;;;;;;5011882;28;20663;-72
2022/03/25 02:44:05;;;;;;;44.05;16.38;;;1.70;99.90;;;;;;5009773;28;20038;-71
2022/03/25 02:46:31;;;;;;;43.92;16.30;;;1.70;99.90;;;;;;5014113;28;20030;-71
2022/03/25 02:48:57;;;;;;;42.78;15.63;;;1.50;99.90;;;;;;5010002;28;20129;-71
2022/03/25 02:51:23;;;;;;;43.50;15.90;;;1.40;99.90;;;;;;5012597;28;20049;-71
2022/03/25 02:53:49;;;;;;;41.65;16.35;;;1.20;99.90;;;;;;5008001;28;20037;-71
2022/03/25 02:56:15;;;;;;;47.17;15.93;;;1.20;99.90;;;;;;5007999;28;20040;-71
2022/03/25 02:58:40;;;;;;;40.95;15.32;;;1.20;99.90;;;;;;5009482;28;20095;-71
2022/03/25 03:01:06;;;;;;;40.92;15.27;;;1.20;99.90;;;;;;5008914;28;20045;-71
2022/03/25 03:03:35;;;;;;;43.22;15.95;;;1.20;99.90;;;;;;5009951;28;20058;-71
2022/03/25 03:06:01;;;;;;;37.58;14.95;;;1.10;99.90;;;;;;5010010;28;20083;-71
2022/03/25 03:08:28;;;;;;;41.42;15.95;;;1.10;99.90;;;;;;5011990;28;20030;-71
2022/03/25 03:10:54;;;;;;;39.97;16.17;;;1.10;99.90;;;;;;5024835;28;20026;-70
2022/03/25 03:13:21;;;;;;;45.20;16.00;;;1.10;99.90;;;;;;5015243;28;20044;-71
2022/03/25 03:15:48;;;;;;;40.10;15.25;;;1.10;99.90;;;;;;5028002;28;20064;-72
2022/03/25 03:18:14;;;;;;;41.38;15.85;;;1.10;99.90;;;;;;5013377;28;20026;-72
2022/03/25 03:20:41;;;;;;;45.08;15.38;;;1.10;99.90;;;;;;5012295;28;20125;-71
2022/03/25 03:23:07;;;;;;;41.92;15.20;;;1.20;99.90;;;;;;5008202;28;20111;-72
2022/03/25 03:25:34;;;;;;;42.67;15.35;;;1.30;99.90;;;;;;5008438;28;20022;-72
2022/03/25 03:28:00;;;;;;;42.58;15.73;;;1.30;99.90;;;;;;5005961;28;20029;-71
2022/03/25 03:30:26;;;;;;;43.67;15.52;;;1.20;99.90;;;;;;5008493;28;20109;-71
2022/03/25 03:32:55;;;;;;;39.63;15.48;;;1.20;99.90;;;;;;5009465;28;20440;-71
2022/03/25 03:35:21;;;;;;;46.58;16.17;;;1.10;99.90;;;;;;5008787;28;20038;-72
2022/03/25 03:37:47;;;;;;;41.30;15.52;;;1.00;99.90;;;;;;5008787;28;20484;-71
2022/03/25 03:40:17;;;;;;;43.35;14.95;;;1.00;99.90;;;;;;4987820;28;20195;-72
2022/03/25 03:42:43;;;;;;;46.47;16.53;;;1.10;99.90;;;;;;4992980;28;20109;-72
2022/03/25 03:45:09;;;;;;;38.42;15.68;;;1.20;99.90;;;;;;5008220;28;20038;-72
2022/03/25 03:47:36;;;;;;;50.25;16.88;;;1.10;99.90;;;;;;5009104;28;20488;-70
2022/03/25 03:50:03;;;;;;;41.30;16.45;;;0.90;99.90;;;;;;5006722;28;20022;-72
2022/03/25 03:52:30;;;;;;;42.67;17.00;;;0.80;99.90;;;;;;5006920;28;20030;-72
2022/03/25 03:54:56;;;;;;;43.47;16.60;;;0.80;99.90;;;;;;5008137;28;20053;-71
2022/03/25 03:57:21;;;;;;;42.63;15.95;;;0.90;99.90;;;;;;5008324;28;20084;-72
2022/03/25 03:59:47;;;;;;;42.42;15.80;;;0.80;99.90;;;;;;5008013;28;20030;-72
2022/03/25 04:02:13;;;;;;;45.45;16.17;;;0.80;99.90;;;;;;5006572;28;20037;-72
2022/03/25 04:04:38;;;;;;;45.20;16.50;;;0.70;99.90;;;;;;5009632;28;20053;-72
2022/03/25 04:07:04;;;;;;;42.33;15.93;;;0.80;99.90;;;;;;5007920;28;20101;-72
2022/03/25 04:09:30;;;;;;;40.70;15.88;;;0.80;99.90;;;;;;5015767;28;20034;-71
2022/03/25 04:11:55;;;;;;;45.53;17.08;;;0.80;99.90;;;;;;5006807;28;20369;-69
2022/03/25 04:14:22;;;;;;;40.92;15.88;;;0.70;99.90;;;;;;5019576;28;20113;-72
2022/03/25 04:16:47;;;;;;;43.30;16.10;;;0.70;99.90;;;;;;5013145;28;20551;-71
2022/03/25 04:19:14;;;;;;;45.33;17.33;;;0.50;99.90;;;;;;5011899;28;20075;-72
2022/03/25 04:21:40;;;;;;;45.25;15.77;;;0.40;99.90;;;;;;5012866;28;20058;-72
2022/03/25 04:24:06;;;;;;;41.65;16.15;;;0.50;99.90;;;;;;5010905;28;20104;-72
2022/03/25 04:26:32;;;;;;;45.25;16.65;;;0.50;99.90;;;;;;5012906;28;20034;-72
2022/03/25 04:28:58;;;;;;;43.13;17.02;;;0.50;99.90;;;;;;5011979;28;20443;-69
2022/03/25 04:31:23;;;;;;;43.20;16.98;;;0.60;99.90;;;;;;5012657;28;20022;-72
2022/03/25 04:33:49;;;;;;;46.85;17.02;;;0.60;99.90;;;;;;5011763;28;20491;-72
2022/03/25 04:36:15;;;;;;;43.35;17.58;;;0.50;99.90;;;;;;5021431;28;20088;-72
2022/03/25 04:38:44;;;;;;;44.45;17.17;;;0.50;99.90;;;;;;5015416;28;20044;-71
2022/03/25 04:41:10;;;;;;;45.22;16.05;;;0.50;99.90;;;;;;5011438;28;20084;-72
2022/03/25 04:43:38;;;;;;;42.30;16.10;;;0.60;99.90;;;;;;5012301;28;20034;-72
2022/03/25 04:46:05;;;;;;;45.83;16.67;;;0.50;99.90;;;;;;5011735;28;20504;-71
2022/03/25 04:48:32;;;;;;;42.92;16.40;;;0.40;99.90;;;;;;5011769;28;20030;-72
2022/03/25 04:50:58;;;;;;;44.50;16.42;;;0.40;99.90;;;;;;5012320;28;20468;-69
2022/03/25 04:53:25;;;;;;;45.33;16.45;;;0.40;99.90;;;;;;5010352;28;20113;-71
2022/03/25 04:55:51;;;;;;;51.33;18.10;;;0.40;99.90;;;;;;5018069;28;20385;-69
2022/03/25 04:58:16;;;;;;;48.08;16.45;;;0.30;99.90;;;;;;5004822;28;20033;-69
2022/03/25 05:00:42;;;;;;;44.92;16.73;;;0.30;99.90;;;;;;5021386;28;20029;-71
2022/03/25 05:03:08;;;;;;;53.65;17.02;;;0.40;99.90;;;;;;5019764;28;20080;-70
2022/03/25 05:05:34;;;;;;;44.42;16.30;;;0.40;99.90;;;;;;5010877;28;20030;-70
2022/03/25 05:07:59;;;;;;;46.40;17.25;;;0.40;99.90;;;;;;5010550;28;20029;-68
2022/03/25 05:10:25;;;;;;;43.30;16.05;;;0.30;99.90;;;;;;5010986;28;20029;-71
2022/03/25 05:12:51;;;;;;;39.35;15.60;;;0.20;99.90;;;;;;5011038;28;20026;-70
2022/03/25 05:15:17;;;;;;;42.97;15.85;;;0.20;99.90;;;;;;5010096;28;20096;-71
2022/03/25 05:17:48;;;;;;;42.70;15.48;;;0.20;99.90;;;;;;5011128;28;20100;-69
2022/03/25 05:20:15;;;;;;;46.33;16.20;;;0.20;99.90;;;;;;5011431;28;20044;-71
2022/03/25 05:22:42;;;;;;;45.40;16.23;;;0.20;99.90;;;;;;5010828;28;20392;-72
2022/03/25 05:25:08;;;;;;;47.50;16.80;;;0.20;99.90;;;;;;5010253;28;20514;-70
2022/03/25 05:27:52;;;;;;;45.90;17.08;;;0.20;99.90;;;;;;5018219;28;20087;-70
2022/03/25 05:30:24;;;;;;;42.33;16.38;;;0.10;99.90;;;;;;5009740;28;20065;-71
2022/03/25 05:32:50;;;;;;;41.15;15.52;;;0.20;99.90;;;;;;5011196;28;20034;-70
2022/03/25 05:35:16;;;;;;;43.05;16.13;;;0.30;99.90;;;;;;5009595;28;20033;-70
2022/03/25 05:37:42;;;;;;;47.80;18.38;;;0.20;99.90;;;;;;5010513;28;20030;-72
2022/03/25 05:40:09;;;;;;;43.88;16.65;;;0.10;99.90;;;;;;5010679;28;20033;-73
2022/03/25 05:42:35;;;;;;;50.42;16.50;;;0.10;99.90;;;;;;5011649;28;20125;-71
2022/03/25 05:45:03;;;;;;;43.33;16.42;;;0.10;99.90;;;;;;5010240;28;20113;-68
2022/03/25 05:47:29;;;;;;;43.20;15.77;;;0.00;99.90;;;;;;5010535;28;20105;-72
2022/03/25 05:49:54;;;;;;;47.45;16.33;;;0.00;99.90;;;;;;5009255;28;20113;-71
2022/03/25 05:52:20;;;;;;;47.97;17.25;;;0.10;99.90;;;;;;5008716;28;20122;-71
2022/03/25 05:54:45;;;;;;;45.88;17.27;;;0.10;99.90;;;;;;5010468;28;20030;-69
2022/03/25 05:57:11;;;;;;;43.65;16.75;;;0.40;99.90;;;;;;5014885;28;20025;-69
2022/03/25 05:59:37;;;;;;;50.30;16.63;;;0.50;99.90;;;;;;5013622;28;20036;-72
2022/03/25 06:02:03;;;;;;;47.38;16.52;;;0.60;99.90;;;;;;5009947;28;20105;-71
2022/03/25 06:04:29;;;;;;;45.83;16.90;;;0.70;99.90;;;;;;5010412;28;20053;-73
2022/03/25 06:06:54;;;;;;;45.83;16.23;;;0.70;99.90;;;;;;5010923;28;20030;-71
2022/03/25 06:09:20;;;;;;;44.40;16.67;;;0.90;99.90;;;;;;5009542;28;20030;-71
2022/03/25 06:11:46;;;;;;;45.92;17.63;;;1.00;99.90;;;;;;5010360;28;20496;-71
2022/03/25 06:14:12;;;;;;;44.55;16.17;;;1.20;99.90;;;;;;5010220;28;20042;-73
2022/03/25 06:16:39;;;;;;;42.95;16.52;;;1.30;99.90;;;;;;5010664;28;20057;-71
2022/03/25 06:19:05;;;;;;;44.17;16.63;;;1.30;99.90;;;;;;5009962;28;20022;-68
2022/03/25 06:21:31;;;;;;;51.10;18.00;;;1.40;99.90;;;;;;5010174;28;20030;-70
2022/03/25 06:23:57;;;;;;;43.10;17.02;;;1.60;99.90;;;;;;5010679;28;21863;-70
2022/03/25 06:26:23;;;;;;;44.60;16.95;;;1.70;99.90;;;;;;5009573;28;20033;-70
2022/03/25 06:28:49;;;;;;;46.72;17.40;;;1.70;99.90;;;;;;5024516;28;20044;-69
2022/03/25 06:31:15;;;;;;;46.58;16.83;;;1.60;99.90;;;;;;5008655;28;20113;-69
2022/03/25 06:33:41;;;;;;;46.75;17.67;;;1.60;99.90;;;;;;5010700;28;20041;-69
2022/03/25 06:36:25;;;;;;;39.92;17.17;;;1.60;99.90;;;;;;5008919;28;20018;-67
2022/03/25 06:38:50;;;;;;;49.60;16.83;;;1.60;99.90;;;;;;5008892;28;20030;-71
2022/03/25 06:41:16;;;;;;;42.55;15.95;;;1.50;99.90;;;;;;5008454;28;20037;-71
2022/03/25 06:43:42;;;;;;;44.58;17.08;;;1.50;99.90;;;;;;5009383;28;20030;-71
2022/03/25 06:46:08;;;;;;;42.20;17.00;;;1.50;99.90;;;;;;5009335;28;20483;-68
2022/03/25 06:48:34;;;;;;;43.80;16.95;;;1.70;99.90;;;;;;5009550;28;20417;-71
2022/03/25 06:51:00;;;;;;;44.22;17.00;;;1.70;99.90;;;;;;5009462;28;20113;-69
2022/03/25 06:53:27;;;;;;;43.00;16.70;;;1.80;99.90;;;;;;5008768;28;20037;-71
2022/03/25 06:55:53;;;;;;;43.85;17.48;;;1.90;99.90;;;;;;5009769;28;20038;-71
2022/03/25 06:58:20;;;;;;;51.03;17.50;;;2.00;99.90;;;;;;5007439;28;20034;-70
2022/03/25 07:00:47;;;;;;;44.45;18.33;;;2.00;99.90;;;;;;5009928;28;20041;-69
2022/03/25 07:03:14;;;;;;;54.55;18.88;;;2.10;99.90;;;;;;5007381;28;20484;-70
2022/03/25 07:05:40;;;;;;;46.40;18.75;;;2.20;99.90;;;;;;5009342;28;20492;-69
2022/03/25 07:08:06;;;;;;;46.08;17.75;;;2.30;99.90;;;;;;5008854;28;20061;-67
2022/03/25 07:10:33;;;;;;;51.55;19.48;;;2.40;99.90;;;;;;5009147;28;20036;-71
2022/03/25 07:12:59;;;;;;;58.25;19.75;;;2.50;99.90;;;;;;5009575;28;20037;-70
2022/03/25 07:15:25;;;;;;;56.35;20.83;;;2.70;99.90;;;;;;5008150;28;20029;-72
2022/03/25 07:17:54;;;;;;;55.83;20.10;;;2.80;99.90;;;;;;5009506;28;20084;-71
2022/03/25 07:20:22;;;;;;;53.75;19.45;;;3.00;99.90;;;;;;5008691;28;20032;-69
2022/03/25 07:22:50;;;;;;;54.92;20.52;;;3.20;99.90;;;;;;5008546;28;20033;-69
2022/03/25 07:25:17;;;;;;;56.38;20.63;;;3.40;99.90;;;;;;5007592;28;20033;-71
2022/03/25 07:27:44;;;;;;;54.83;21.52;;;3.50;99.90;;;;;;5011970;28;20025;-71
2022/03/25 07:30:11;;;;;;;52.00;19.90;;;3.60;99.90;;;;;;5007141;28;20018;-66
2022/03/25 07:32:37;;;;;;;51.13;20.45;;;3.80;99.90;;;;;;5008903;28;20117;-71
2022/03/25 07:35:05;;;;;;;51.88;21.17;;;4.00;99.90;;;;;;5009118;28;20117;-69
2022/03/25 07:37:31;;;;;;;51.35;21.15;;;4.10;99.90;;;;;;5006085;28;20052;-68
2022/03/25 07:39:56;;;;;;;50.83;20.90;;;4.30;99.90;;;;;;5008215;28;20404;-70
2022/03/25 07:42:22;;;;;;;57.40;21.58;;;4.60;99.90;;;;;;5006105;28;20044;-68
2022/03/25 07:44:48;;;;;;;53.17;21.15;;;4.80;99.90;;;;;;5008127;28;20034;-68
2022/03/25 07:47:14;;;;;;;53.75;21.50;;;5.00;99.90;;;;;;5007892;28;20033;-69
2022/03/25 07:49:43;;;;;;;54.47;21.90;;;5.20;99.90;;;;;;5011224;28;20026;-68
2022/03/25 07:52:10;;;;;;;57.25;22.05;;;5.50;99.90;;;;;;5010887;28;20022;-67
2022/03/25 07:54:36;;;;;;;51.65;20.83;;;5.70;99.90;;;;;;5012308;28;20507;-68
2022/03/25 07:57:03;;;;;;;49.70;20.70;;;6.00;99.90;;;;;;5014506;28;20113;-69
2022/03/25 07:59:29;;;;;;;52.15;21.05;;;6.30;99.90;;;;;;5024327;28;20534;-69
2022/03/25 08:01:56;;;;;;;55.40;21.17;;;6.60;99.90;;;;;;5012593;28;20133;-69
2022/03/25 08:04:25;;;;;;;54.50;22.73;;;6.90;99.90;;;;;;5011508;28;20493;-70
2022/03/25 08:06:52;;;;;;;54.35;22.00;;;7.20;99.90;;;;;;5012895;28;20034;-69
2022/03/25 08:09:18;;;;;;;57.20;22.20;;;7.50;99.90;;;;;;5011908;28;20037;-69
2022/03/25 08:11:45;;;;;;;51.72;21.17;;;7.80;99.90;;;;;;5012095;28;20025;-71
2022/03/25 08:14:12;;;;;;;49.90;19.30;;;8.00;99.90;;;;;;5012093;28;20057;-65
2022/03/25 08:16:38;;;;;;;53.15;21.02;;;8.20;99.90;;;;;;5012416;28;20481;-68
2022/03/25 08:19:05;;;;;;;50.58;21.05;;;8.40;99.90;;;;;;5011529;28;20026;-69
2022/03/25 08:21:31;;;;;;;52.40;21.08;;;8.50;99.90;;;;;;5011934;28;20033;-69
2022/03/25 08:29:25;;;;;;;50.50;20.92;;;9.00;99.90;;;;;;5017691;28;20084;-70
2022/03/25 08:31:51;;;;;;;52.97;21.08;;;9.20;99.90;;;;;;5011595;28;20030;-70
2022/03/25 08:34:17;;;;;;;55.58;21.95;;;9.50;99.90;;;;;;5010744;28;20042;-68
2022/03/25 08:36:44;;;;;;;55.60;22.33;;;9.70;99.90;;;;;;5012298;28;20026;-70
2022/03/25 08:39:10;;;;;;;56.38;21.20;;;9.90;99.90;;;;;;5011806;28;20053;-69
2022/03/25 08:41:36;;;;;;;50.42;21.42;;;10.00;99.90;;;;;;5011110;28;20083;-70
2022/03/25 08:44:02;;;;;;;58.95;22.42;;;10.20;99.90;;;;;;5012155;28;20428;-71
2022/03/25 08:46:28;;;;;;;52.50;21.50;;;10.40;99.90;;;;;;5012001;28;20038;-67
2022/03/25 08:48:54;;;;;;;50.60;21.20;;;10.60;99.90;;;;;;5011903;28;20060;-68
2022/03/25 08:51:19;;;;;;;49.55;21.17;;;10.80;99.90;;;;;;5011326;28;20057;-69
2022/03/25 08:53:46;;;;;;;49.45;20.85;;;11.00;99.90;;;;;;5011803;28;20037;-66
2022/03/25 08:56:12;;;;;;;50.17;20.92;;;11.10;99.80;;;;;;5012098;28;20034;-66
2022/03/25 08:58:39;;;;;;;49.25;20.90;;;11.30;98.20;;;;;;5023154;28;20021;-69
2022/03/25 09:01:05;;;;;;;50.50;21.33;;;11.50;96.60;;;;;;5011443;28;20030;-68
2022/03/25 09:03:30;;;;;;;51.15;21.15;;;11.70;94.40;;;;;;5011494;28;20058;-66
2022/03/25 09:05:56;;;;;;;51.85;21.52;;;11.80;83.10;;;;;;5011266;28;20049;-69
2022/03/25 09:08:22;;;;;;;52.45;21.42;;;12.00;80.70;;;;;;5010597;28;20556;-70
2022/03/25 09:10:48;;;;;;;51.67;22.00;;;12.20;78.20;;;;;;5012329;28;20034;-69
2022/03/25 09:13:14;;;;;;;48.03;21.23;;;12.40;80.00;;;;;;5011210;28;20512;-67
2022/03/25 09:15:40;;;;;;;49.50;20.70;;;12.50;70.70;;;;;;5011953;28;20028;-70
2022/03/25 09:18:06;;;;;;;45.63;20.15;;;12.60;73.90;;;;;;5011469;28;20380;-68
2022/03/25 09:20:31;;;;;;;54.22;21.33;;;12.90;73.80;;;;;;5010857;28;20034;-70
2022/03/25 09:22:57;;;;;;;53.58;21.33;;;13.10;67.10;;;;;;5011449;28;20033;-70
2022/03/25 09:25:26;;;;;;;49.47;21.50;;;13.30;66.80;;;;;;5010688;28;20046;-70
2022/03/25 09:27:52;;;;;;;56.33;22.10;;;13.40;62.40;;;;;;5013414;28;20030;-69
2022/03/25 09:30:18;;;;;;;53.08;22.88;;;13.40;56.40;;;;;;5011170;28;20026;-70
2022/03/25 09:32:43;;;;;;;57.65;23.30;;;13.60;56.90;;;;;;5011655;28;20026;-69
2022/03/25 09:35:09;;;;;;;51.90;23.00;;;13.80;57.50;;;;;;5011443;28;20037;-70
2022/03/25 09:37:45;;;;;;;55.58;22.25;;;14.00;58.60;;;;;;5010045;28;20028;-68
2022/03/25 09:40:14;;;;;;;54.13;24.27;;;14.30;60.00;;;;;;5000530;28;20372;-69
2022/03/25 09:42:41;;;;;;;55.83;24.65;;;14.40;57.30;;;;;;5010398;28;20026;-69
2022/03/25 09:45:09;;;;;;;60.63;24.88;;;14.60;60.70;;;;;;5010800;28;20041;-69
2022/03/25 09:47:35;;;;;;;58.13;25.08;;;14.80;59.40;;;;;;5010492;28;20059;-68
2022/03/25 09:50:03;;;;;;;62.20;26.48;;;15.00;58.20;;;;;;5011225;28;20042;-68
2022/03/25 09:52:31;;;;;;;62.28;26.20;;;15.10;57.80;;;;;;5010234;28;20030;-70
2022/03/25 09:54:58;;;;;;;63.90;25.70;;;15.20;56.30;;;;;;5011027;28;20038;-69
2022/03/25 09:57:26;;;;;;;61.95;25.73;;;15.20;58.10;;;;;;5014453;28;20033;-70
2022/03/25 09:59:52;;;;;;;59.72;25.63;;;15.20;57.30;;;;;;5010519;28;20065;-68
2022/03/25 10:02:18;;;;;;;63.10;26.52;;;15.20;55.50;;;;;;5009366;28;20045;-67
2022/03/25 10:04:45;;;;;;;65.28;25.02;;;15.20;55.50;;;;;;5009344;28;20058;-68
2022/03/25 10:07:16;;;;;;;59.25;25.02;;;15.10;55.70;;;;;;5010560;28;20040;-68
2022/03/25 10:09:43;;;;;;;61.10;26.00;;;15.20;56.20;;;;;;5009186;28;20469;-69
2022/03/25 10:12:26;;;;;;;65.85;26.85;;;15.50;57.10;;;;;;5010767;28;20032;-71
2022/03/25 10:15:09;;;;;;;59.78;26.00;;;15.80;55.80;;;;;;5009884;28;20069;-69
2022/03/25 10:17:57;;;;;;;57.33;26.33;;;15.90;55.00;;;;;;4991339;28;20034;-68
2022/03/25 10:20:30;;;;;;;55.42;25.70;;;16.00;53.90;;;;;;4997529;28;20056;-68
2022/03/25 10:23:17;;;;;;;71.95;27.25;;;16.20;54.60;;;;;;5009532;28;20397;-71
2022/03/25 10:25:47;;;;;;;62.20;26.83;;;16.20;54.10;;;;;;5008813;28;20133;-67
2022/03/25 10:28:40;;;;;;;52.97;24.97;;;16.30;53.10;;;;;;5021767;28;20040;-68
2022/03/25 10:31:11;;;;;;;58.80;26.45;;;16.30;53.00;;;;;;5012780;28;20494;-69
2022/03/25 10:33:43;;;;;;;62.28;26.42;;;16.40;53.20;;;;;;5009626;28;20105;-68
2022/03/25 10:36:11;;;;;;;58.65;26.25;;;16.30;52.10;;;;;;5009904;28;20057;-68
2022/03/25 10:38:48;;;;;;;62.60;26.88;;;16.40;53.20;;;;;;5008736;28;20041;-70
2022/03/25 10:41:18;;;;;;;69.22;26.88;;;16.70;51.50;;;;;;5007781;28;20034;-69
2022/03/25 10:43:53;;;;;;;65.85;28.70;;;16.80;51.00;;;;;;5009557;28;20068;-70
2022/03/25 10:46:32;;;;;;;55.92;25.65;;;17.10;51.00;;;;;;5009870;28;20042;-66
2022/03/25 10:48:59;;;;;;;64.05;27.60;;;17.30;50.60;;;;;;5010861;28;20052;-68
2022/03/25 10:51:25;;;;;;;56.05;26.67;;;17.60;50.40;;;;;;5010037;28;20041;-70
2022/03/25 10:54:09;;;;;;;64.63;29.10;;;17.60;49.60;;;;;;5009771;28;20041;-68
2022/03/25 10:56:44;;;;;;;64.95;29.58;;;17.50;48.50;;;;;;5001213;28;20080;-69
2022/03/25 10:59:20;;;;;;;61.40;27.45;;;17.30;49.90;;;;;;5013666;28;20113;-68
2022/03/25 11:01:45;;;;;;;55.92;26.48;;;17.30;49.60;;;;;;5008806;28;20034;-70
2022/03/25 11:04:12;;;;;;;61.65;27.17;;;17.50;46.70;;;;;;5009179;28;20061;-67
2022/03/25 11:06:39;;;;;;;59.20;26.05;;;17.40;46.10;;;;;;5008792;28;20065;-70
2022/03/25 11:09:08;;;;;;;62.97;28.70;;;17.50;46.70;;;;;;5009139;28;20660;-68
2022/03/25 11:11:34;;;;;;;63.92;28.30;;;17.60;45.60;;;;;;5008308;28;20030;-69
2022/03/25 11:14:01;;;;;;;66.30;29.33;;;17.50;46.20;;;;;;5008613;28;20764;-71
2022/03/25 11:16:27;;;;;;;62.30;28.30;;;17.70;46.50;;;;;;5008969;28;20452;-70
2022/03/25 11:18:54;;;;;;;68.82;29.67;;;17.90;46.40;;;;;;5008755;28;20072;-68
2022/03/25 11:21:21;;;;;;;72.43;28.63;;;17.90;45.80;;;;;;5007866;28;20109;-67
2022/03/25 11:23:51;;;;;;;73.00;29.20;;;17.70;45.10;;;;;;5009356;28;20033;-69
2022/03/25 11:26:21;;;;;;;65.80;29.33;;;17.80;45.10;;;;;;5008484;28;20037;-67
2022/03/25 11:28:56;;;;;;;57.80;27.08;;;17.80;44.90;;;;;;5010105;28;20627;-68
2022/03/25 11:31:24;;;;;;;61.05;28.40;;;18.00;45.90;;;;;;5004038;28;20034;-64
2022/03/25 11:34:10;;;;;;;68.68;29.33;;;18.20;45.00;;;;;;5008298;28;20042;-66
2022/03/25 11:37:15;;;;;;;61.58;27.85;;;18.60;45.20;;;;;;5006509;28;20021;-68
2022/03/25 11:39:40;;;;;;;62.22;28.33;;;18.30;43.60;;;;;;5006139;28;20292;-70
2022/03/25 11:42:07;;;;;;;61.85;27.20;;;18.10;43.40;;;;;;5009396;28;20478;-69
2022/03/25 11:44:33;;;;;;;63.75;29.90;;;18.20;43.10;;;;;;5016851;28;20401;-68
2022/03/25 11:46:59;;;;;;;59.60;27.42;;;18.20;42.60;;;;;;5010402;28;20475;-70
2022/03/25 11:49:40;;;;;;;56.13;26.27;;;18.40;45.10;;;;;;5005863;28;20068;-67
2022/03/25 11:52:26;;;;;;;60.38;27.58;;;18.50;41.60;;;;;;5007497;28;20022;-71
2022/03/25 11:54:58;;;;;;;57.25;26.25;;;18.50;40.40;;;;;;5005330;28;20495;-69
2022/03/25 11:57:24;;;;;;;58.50;25.50;;;18.40;40.90;;;;;;5004983;28;20160;-69
2022/03/25 12:00:04;;;;;;;52.72;25.58;;;18.50;41.40;;;;;;5005779;28;20034;-70
2022/03/25 12:02:36;;;;;;;50.17;24.17;;;18.60;38.00;;;;;;5008424;28;20041;-71
2022/03/25 12:05:25;;;;;;;58.38;24.02;;;18.80;39.40;;;;;;5009796;28;20574;-70
2022/03/25 12:08:22;;;;;;;48.25;23.13;;;19.20;39.80;;;;;;5006033;28;20079;-72
2022/03/25 12:10:50;;;;;;;38.60;20.05;;;19.30;37.60;;;;;;5005237;28;20028;-71
2022/03/25 12:13:20;;;;;;;49.92;21.30;;;19.00;35.50;;;;;;5008881;28;20030;-70
2022/03/25 12:15:52;;;;;;;45.17;21.08;;;19.20;38.20;;;;;;5011605;28;20018;-71
2022/03/25 12:18:40;;;;;;;45.72;21.50;;;19.30;35.00;;;;;;5027039;28;20033;-71
2022/03/25 12:21:21;;;;;;;48.00;21.52;;;19.40;35.70;;;;;;5009877;28;20038;-71
2022/03/25 12:24:01;;;;;;;51.35;24.10;;;19.50;34.30;;;;;;5024121;28;20599;-71
2022/03/25 12:26:35;;;;;;;50.72;24.23;;;19.70;37.20;;;;;;4995311;28;20483;-69
2022/03/25 12:29:03;;;;;;;47.22;23.63;;;19.60;36.00;;;;;;5006264;28;20536;-72
2022/03/25 12:31:29;;;;;;;48.75;23.30;;;19.60;37.70;;;;;;5007674;28;20029;-71
2022/03/25 12:33:57;;;;;;;52.17;23.90;;;19.40;35.80;;;;;;5010666;28;20026;-70
2022/03/25 12:36:27;;;;;;;53.60;24.90;;;19.20;37.00;;;;;;5011271;28;20496;-69
2022/03/25 12:38:57;;;;;;;49.70;24.40;;;19.50;37.60;;;;;;5012079;28;20034;-71
2022/03/25 12:41:28;;;;;;;55.35;25.17;;;19.50;38.70;;;;;;5011825;28;20061;-71